sensor_id;sensor_type;location;lat;lon;timestamp;pressure;altitude;pressure_sealevel;temperature;humidity
80405;BME280;69733;48.744;9.176;2023-12-20T00:01:15;96846.38;;;4.38;93.39
80405;BME280;69733;48.744;9.176;2023-12-20T00:03:40;96830.13;;;4.35;93.48
80405;BME280;69733;48.744;9.176;2023-12-20T00:06:06;96831.72;;;4.36;93.56
80405;BME280;69733;48.744;9.176;2023-12-20T00:08:31;96829.09;;;4.36;93.50
80405;BME280;69733;48.744;9.176;2023-12-20T00:10:57;96821.84;;;4.38;93.98
80405;BME280;69733;48.744;9.176;2023-12-20T00:13:22;96823.28;;;4.40;93.75
80405;BME280;69733;48.744;9.176;2023-12-20T00:15:47;96822.28;;;4.41;93.87
80405;BME280;69733;48.744;9.176;2023-12-20T00:18:13;96826.53;;;4.42;93.64
80405;BME280;69733;48.744;9.176;2023-12-20T00:20:38;96820.25;;;4.43;93.63
80405;BME280;69733;48.744;9.176;2023-12-20T00:23:03;96814.59;;;4.46;93.98
80405;BME280;69733;48.744;9.176;2023-12-20T00:25:29;96810.34;;;4.45;93.55
80405;BME280;69733;48.744;9.176;2023-12-20T00:27:54;96814.59;;;4.46;93.46
80405;BME280;69733;48.744;9.176;2023-12-20T00:30:19;96813.00;;;4.45;93.84
80405;BME280;69733;48.744;9.176;2023-12-20T00:32:44;96812.19;;;4.45;93.86
80405;BME280;69733;48.744;9.176;2023-12-20T00:35:15;96805.47;;;4.42;93.89
80405;BME280;69733;48.744;9.176;2023-12-20T00:37:41;96803.84;;;4.41;94.23
80405;BME280;69733;48.744;9.176;2023-12-20T00:40:07;96805.66;;;4.41;94.06
80405;BME280;69733;48.744;9.176;2023-12-20T00:42:33;96800.38;;;4.41;94.00
80405;BME280;69733;48.744;9.176;2023-12-20T00:44:59;96812.72;;;4.40;94.44
80405;BME280;69733;48.744;9.176;2023-12-20T00:47:24;96804.22;;;4.38;94.25
80405;BME280;69733;48.744;9.176;2023-12-20T00:49:49;96801.59;;;4.38;94.24
80405;BME280;69733;48.744;9.176;2023-12-20T00:52:15;96795.50;;;4.38;94.53
80405;BME280;69733;48.744;9.176;2023-12-20T00:54:42;96806.84;;;4.38;94.31
80405;BME280;69733;48.744;9.176;2023-12-20T00:57:07;96790.84;;;4.40;94.55
80405;BME280;69733;48.744;9.176;2023-12-20T00:59:33;96797.50;;;4.36;94.56
80405;BME280;69733;48.744;9.176;2023-12-20T01:01:58;96793.84;;;4.37;94.98
80405;BME280;69733;48.744;9.176;2023-12-20T01:04:23;96796.31;;;4.38;94.96
80405;BME280;69733;48.744;9.176;2023-12-20T01:06:48;96796.69;;;4.35;94.56
80405;BME280;69733;48.744;9.176;2023-12-20T01:09:14;96800.31;;;4.34;94.70
80405;BME280;69733;48.744;9.176;2023-12-20T01:11:39;96802.97;;;4.34;94.98
80405;BME280;69733;48.744;9.176;2023-12-20T01:14:04;96803.13;;;4.33;94.57
80405;BME280;69733;48.744;9.176;2023-12-20T01:16:30;96803.97;;;4.33;94.57
80405;BME280;69733;48.744;9.176;2023-12-20T01:18:55;96803.97;;;4.33;94.86
80405;BME280;69733;48.744;9.176;2023-12-20T01:21:21;96809.22;;;4.33;94.67
80405;BME280;69733;48.744;9.176;2023-12-20T01:23:46;96804.94;;;4.32;95.12
80405;BME280;69733;48.744;9.176;2023-12-20T01:26:11;96807.59;;;4.32;94.99
80405;BME280;69733;48.744;9.176;2023-12-20T01:28:37;96810.22;;;4.32;95.12
80405;BME280;69733;48.744;9.176;2023-12-20T01:31:03;96803.97;;;4.33;95.02
80405;BME280;69733;48.744;9.176;2023-12-20T01:33:29;96812.84;;;4.32;94.97
80405;BME280;69733;48.744;9.176;2023-12-20T01:35:54;96810.22;;;4.32;95.34
80405;BME280;69733;48.744;9.176;2023-12-20T01:38:19;96813.88;;;4.31;95.22
80405;BME280;69733;48.744;9.176;2023-12-20T01:40:45;96817.34;;;4.32;94.99
80405;BME280;69733;48.744;9.176;2023-12-20T01:43:11;96807.59;;;4.32;95.14
80405;BME280;69733;48.744;9.176;2023-12-20T01:45:37;96818.13;;;4.32;95.14
80405;BME280;69733;48.744;9.176;2023-12-20T01:48:04;96813.66;;;4.33;94.83
80405;BME280;69733;48.744;9.176;2023-12-20T01:50:31;96813.66;;;4.33;94.78
80405;BME280;69733;48.744;9.176;2023-12-20T01:53:01;96823.38;;;4.32;95.13
80405;BME280;69733;48.744;9.176;2023-12-20T01:55:29;96817.13;;;4.33;94.97
80405;BME280;69733;48.744;9.176;2023-12-20T01:57:57;96808.22;;;4.34;94.98
80405;BME280;69733;48.744;9.176;2023-12-20T02:00:23;96806.41;;;4.35;94.90
80405;BME280;69733;48.744;9.176;2023-12-20T02:02:52;96807.22;;;4.35;94.88
80405;BME280;69733;48.744;9.176;2023-12-20T02:05:18;96807.22;;;4.35;94.83
80405;BME280;69733;48.744;9.176;2023-12-20T02:07:43;96805.38;;;4.36;95.23
80405;BME280;69733;48.744;9.176;2023-12-20T02:10:09;96808.22;;;4.34;94.78
80405;BME280;69733;48.744;9.176;2023-12-20T02:12:34;96798.50;;;4.35;94.95
80405;BME280;69733;48.744;9.176;2023-12-20T02:15:00;96804.59;;;4.35;94.62
80405;BME280;69733;48.744;9.176;2023-12-20T02:17:27;96809.47;;;4.38;94.89
80405;BME280;69733;48.744;9.176;2023-12-20T02:19:52;96809.47;;;4.38;94.88
80405;BME280;69733;48.744;9.176;2023-12-20T02:22:18;96808.47;;;4.39;94.72
80405;BME280;69733;48.744;9.176;2023-12-20T02:24:43;96800.38;;;4.41;94.51
80405;BME280;69733;48.744;9.176;2023-12-20T02:27:08;96797.75;;;4.41;94.33
80405;BME280;69733;48.744;9.176;2023-12-20T02:29:34;96802.84;;;4.42;94.74
80405;BME280;69733;48.744;9.176;2023-12-20T02:32:00;96804.66;;;4.42;94.33
80405;BME280;69733;48.744;9.176;2023-12-20T02:34:26;96807.28;;;4.42;94.39
80405;BME280;69733;48.744;9.176;2023-12-20T02:36:52;96802.03;;;4.42;94.86
80405;BME280;69733;48.744;9.176;2023-12-20T02:39:18;96802.19;;;4.40;94.73
80405;BME280;69733;48.744;9.176;2023-12-20T02:41:43;96806.47;;;4.41;94.63
80405;BME280;69733;48.744;9.176;2023-12-20T02:44:09;96814.97;;;4.43;94.50
80405;BME280;69733;48.744;9.176;2023-12-20T02:46:34;96801.00;;;4.43;94.42
80405;BME280;69733;48.744;9.176;2023-12-20T02:48:59;96806.25;;;4.43;94.47
80405;BME280;69733;48.744;9.176;2023-12-20T02:51:25;96807.09;;;4.43;94.44
80405;BME280;69733;48.744;9.176;2023-12-20T02:53:50;96810.53;;;4.44;94.65
80405;BME280;69733;48.744;9.176;2023-12-20T02:56:16;96806.69;;;4.46;94.22
80405;BME280;69733;48.744;9.176;2023-12-20T02:58:41;96815.63;;;4.45;94.84
80405;BME280;69733;48.744;9.176;2023-12-20T03:01:06;96819.88;;;4.46;94.31
80405;BME280;69733;48.744;9.176;2023-12-20T03:03:32;96817.22;;;4.46;94.29
80405;BME280;69733;48.744;9.176;2023-12-20T03:05:57;96813.59;;;4.47;94.35
80405;BME280;69733;48.744;9.176;2023-12-20T03:08:23;96811.34;;;4.44;94.40
80405;BME280;69733;48.744;9.176;2023-12-20T03:10:48;96825.53;;;4.43;94.53
80405;BME280;69733;48.744;9.176;2023-12-20T03:13:13;96820.25;;;4.43;94.77
80405;BME280;69733;48.744;9.176;2023-12-20T03:15:39;96819.88;;;4.46;94.86
80405;BME280;69733;48.744;9.176;2023-12-20T03:18:05;96825.13;;;4.46;94.79
80405;BME280;69733;48.744;9.176;2023-12-20T03:20:30;96834.06;;;4.45;94.79
80405;BME280;69733;48.744;9.176;2023-12-20T03:23:02;96831.59;;;4.44;94.98
80405;BME280;69733;48.744;9.176;2023-12-20T03:25:28;96823.69;;;4.44;94.60
80405;BME280;69733;48.744;9.176;2023-12-20T03:27:53;96826.34;;;4.44;94.45
80405;BME280;69733;48.744;9.176;2023-12-20T03:30:19;96824.53;;;4.44;94.76
80405;BME280;69733;48.744;9.176;2023-12-20T03:32:45;96826.34;;;4.44;94.37
80405;BME280;69733;48.744;9.176;2023-12-20T03:35:10;96828.97;;;4.44;94.37
80405;BME280;69733;48.744;9.176;2023-12-20T03:37:36;96822.72;;;4.45;94.59
80405;BME280;69733;48.744;9.176;2023-12-20T03:40:01;96826.34;;;4.44;94.51
80405;BME280;69733;48.744;9.176;2023-12-20T03:42:27;96832.44;;;4.44;94.58
80405;BME280;69733;48.744;9.176;2023-12-20T03:44:52;96837.69;;;4.44;94.38
80405;BME280;69733;48.744;9.176;2023-12-20T03:47:17;96832.44;;;4.44;94.84
80405;BME280;69733;48.744;9.176;2023-12-20T03:49:43;96827.34;;;4.43;94.61
80405;BME280;69733;48.744;9.176;2023-12-20T03:52:08;96839.06;;;4.40;94.97
80405;BME280;69733;48.744;9.176;2023-12-20T03:54:35;96842.91;;;4.38;95.26
80405;BME280;69733;48.744;9.176;2023-12-20T03:57:00;96846.53;;;4.37;95.21
80405;BME280;69733;48.744;9.176;2023-12-20T03:59:25;96838.03;;;4.35;94.92
80405;BME280;69733;48.744;9.176;2023-12-20T04:01:51;96839.84;;;4.34;95.14
80405;BME280;69733;48.744;9.176;2023-12-20T04:04:16;96833.56;;;4.35;95.12
80405;BME280;69733;48.744;9.176;2023-12-20T04:06:41;96840.84;;;4.33;94.90
80405;BME280;69733;48.744;9.176;2023-12-20T04:09:07;96844.47;;;4.32;95.43
80405;BME280;69733;48.744;9.176;2023-12-20T04:11:34;96849.13;;;4.30;95.36
80405;BME280;69733;48.744;9.176;2023-12-20T04:13:59;96845.88;;;4.28;95.51
80405;BME280;69733;48.744;9.176;2023-12-20T04:16:25;96844.00;;;4.29;95.04
80405;BME280;69733;48.744;9.176;2023-12-20T04:18:51;96839.56;;;4.29;95.53
80405;BME280;69733;48.744;9.176;2023-12-20T04:21:16;96838.56;;;4.30;95.56
80405;BME280;69733;48.744;9.176;2023-12-20T04:23:41;96843.22;;;4.28;95.43
80405;BME280;69733;48.744;9.176;2023-12-20T04:26:10;96849.50;;;4.27;95.43
80405;BME280;69733;48.744;9.176;2023-12-20T04:28:35;96862.84;;;4.26;95.17
80405;BME280;69733;48.744;9.176;2023-12-20T04:31:01;96871.94;;;4.23;95.12
80405;BME280;69733;48.744;9.176;2023-12-20T04:33:26;96875.56;;;4.22;95.71
80405;BME280;69733;48.744;9.176;2023-12-20T04:35:51;96865.03;;;4.22;95.75
80405;BME280;69733;48.744;9.176;2023-12-20T04:38:17;96861.22;;;4.25;95.32
80405;BME280;69733;48.744;9.176;2023-12-20T04:40:42;96856.56;;;4.27;95.37
80405;BME280;69733;48.744;9.176;2023-12-20T04:43:08;96864.66;;;4.25;95.47
80405;BME280;69733;48.744;9.176;2023-12-20T04:45:34;96871.94;;;4.23;95.22
80405;BME280;69733;48.744;9.176;2023-12-20T04:47:59;96875.56;;;4.22;95.42
80405;BME280;69733;48.744;9.176;2023-12-20T04:50:25;96886.09;;;4.22;95.25
80405;BME280;69733;48.744;9.176;2023-12-20T04:52:50;96887.72;;;4.23;95.24
80405;BME280;69733;48.744;9.176;2023-12-20T04:55:16;96883.47;;;4.22;95.54
80405;BME280;69733;48.744;9.176;2023-12-20T04:57:41;96873.13;;;4.21;95.53
80405;BME280;69733;48.744;9.176;2023-12-20T05:00:08;96872.09;;;4.22;95.45
80405;BME280;69733;48.744;9.176;2023-12-20T05:02:34;96881.03;;;4.21;95.38
80405;BME280;69733;48.744;9.176;2023-12-20T05:05:00;96882.84;;;4.20;95.45
80405;BME280;69733;48.744;9.176;2023-12-20T05:07:25;96896.19;;;4.19;95.25
80405;BME280;69733;48.744;9.176;2023-12-20T05:09:51;96892.72;;;4.18;95.40
80405;BME280;69733;48.744;9.176;2023-12-20T05:12:16;96890.09;;;4.18;95.53
80405;BME280;69733;48.744;9.176;2023-12-20T05:14:41;96890.09;;;4.18;95.35
80405;BME280;69733;48.744;9.176;2023-12-20T05:17:07;96884.03;;;4.18;95.55
80405;BME280;69733;48.744;9.176;2023-12-20T05:19:32;96892.56;;;4.20;95.60
80405;BME280;69733;48.744;9.176;2023-12-20T05:22:00;96901.44;;;4.19;95.80
80405;BME280;69733;48.744;9.176;2023-12-20T05:24:26;96906.72;;;4.19;95.09
80405;BME280;69733;48.744;9.176;2023-12-20T05:26:51;96904.28;;;4.17;95.47
80405;BME280;69733;48.744;9.176;2023-12-20T05:29:16;96909.53;;;4.17;95.40
80405;BME280;69733;48.744;9.176;2023-12-20T05:31:42;96912.19;;;4.17;95.60
80405;BME280;69733;48.744;9.176;2023-12-20T05:34:07;96914.16;;;4.15;95.29
80405;BME280;69733;48.744;9.176;2023-12-20T05:36:33;96917.63;;;4.16;95.12
80405;BME280;69733;48.744;9.176;2023-12-20T05:38:58;96914.97;;;4.16;95.36
80405;BME280;69733;48.744;9.176;2023-12-20T05:41:23;96918.44;;;4.16;95.73
80405;BME280;69733;48.744;9.176;2023-12-20T05:43:49;96925.34;;;4.17;95.33
80405;BME280;69733;48.744;9.176;2023-12-20T05:46:14;96923.72;;;4.16;95.83
80405;BME280;69733;48.744;9.176;2023-12-20T05:48:39;96925.53;;;4.16;95.44
80405;BME280;69733;48.744;9.176;2023-12-20T05:51:05;96942.13;;;4.16;95.59
80405;BME280;69733;48.744;9.176;2023-12-20T05:53:30;96941.16;;;4.17;95.66
80405;BME280;69733;48.744;9.176;2023-12-20T05:55:55;96941.31;;;4.16;95.43
80405;BME280;69733;48.744;9.176;2023-12-20T05:58:21;96939.50;;;4.16;95.46
80405;BME280;69733;48.744;9.176;2023-12-20T06:00:46;96951.03;;;4.15;95.35
80405;BME280;69733;48.744;9.176;2023-12-20T06:03:11;96953.66;;;4.15;95.61
80405;BME280;69733;48.744;9.176;2023-12-20T06:05:36;96960.56;;;4.16;95.45
80405;BME280;69733;48.744;9.176;2023-12-20T06:08:02;96957.75;;;4.18;95.39
80405;BME280;69733;48.744;9.176;2023-12-20T06:10:28;96969.28;;;4.17;95.70
80405;BME280;69733;48.744;9.176;2023-12-20T06:12:54;96968.47;;;4.16;95.41
80405;BME280;69733;48.744;9.176;2023-12-20T06:15:19;96963.81;;;4.18;95.27
80405;BME280;69733;48.744;9.176;2023-12-20T06:17:45;96958.56;;;4.18;95.33
80405;BME280;69733;48.744;9.176;2023-12-20T06:20:11;96964.47;;;4.20;95.41
80405;BME280;69733;48.744;9.176;2023-12-20T06:22:38;96967.94;;;4.21;95.54
80405;BME280;69733;48.744;9.176;2023-12-20T06:25:03;96974.00;;;4.21;95.10
80405;BME280;69733;48.744;9.176;2023-12-20T06:27:29;96972.16;;;4.22;95.03
80405;BME280;69733;48.744;9.176;2023-12-20T06:29:54;96965.09;;;4.22;95.35
80405;BME280;69733;48.744;9.176;2023-12-20T06:32:20;96965.28;;;4.21;95.40
80405;BME280;69733;48.744;9.176;2023-12-20T06:34:45;96964.28;;;4.22;95.39
80405;BME280;69733;48.744;9.176;2023-12-20T06:37:10;96965.09;;;4.22;95.59
80405;BME280;69733;48.744;9.176;2023-12-20T06:39:36;96950.09;;;4.23;95.18
80405;BME280;69733;48.744;9.176;2023-12-20T06:42:01;96958.00;;;4.23;94.89
80405;BME280;69733;48.744;9.176;2023-12-20T06:44:26;96965.91;;;4.23;95.17
80405;BME280;69733;48.744;9.176;2023-12-20T06:46:52;96979.91;;;4.23;95.25
80405;BME280;69733;48.744;9.176;2023-12-20T06:49:17;96985.78;;;4.25;95.12
80405;BME280;69733;48.744;9.176;2023-12-20T06:51:43;96988.63;;;4.24;95.40
80405;BME280;69733;48.744;9.176;2023-12-20T06:54:09;96976.28;;;4.24;95.36
80405;BME280;69733;48.744;9.176;2023-12-20T06:56:34;96978.72;;;4.26;95.01
80405;BME280;69733;48.744;9.176;2023-12-20T06:59:00;96982.97;;;4.27;94.98
80405;BME280;69733;48.744;9.176;2023-12-20T07:01:25;96995.31;;;4.26;95.34
80405;BME280;69733;48.744;9.176;2023-12-20T07:03:50;96989.69;;;4.29;95.08
80405;BME280;69733;48.744;9.176;2023-12-20T07:06:15;97000.88;;;4.31;95.27
80405;BME280;69733;48.744;9.176;2023-12-20T07:08:42;97009.59;;;4.32;95.21
80405;BME280;69733;48.744;9.176;2023-12-20T07:11:07;97007.75;;;4.32;95.42
80405;BME280;69733;48.744;9.176;2023-12-20T07:13:33;97012.84;;;4.34;95.30
80405;BME280;69733;48.744;9.176;2023-12-20T07:15:58;97010.03;;;4.35;95.23
80405;BME280;69733;48.744;9.176;2023-12-20T07:18:23;97016.09;;;4.36;95.29
80405;BME280;69733;48.744;9.176;2023-12-20T07:20:49;97019.75;;;4.35;95.19
80405;BME280;69733;48.744;9.176;2023-12-20T07:23:14;97029.09;;;4.37;94.98
80405;BME280;69733;48.744;9.176;2023-12-20T07:25:39;97030.38;;;4.41;94.61
80405;BME280;69733;48.744;9.176;2023-12-20T07:28:05;97033.19;;;4.40;95.04
80405;BME280;69733;48.744;9.176;2023-12-20T07:30:31;97042.09;;;4.39;94.91
80405;BME280;69733;48.744;9.176;2023-12-20T07:32:56;97059.72;;;4.38;94.91
80405;BME280;69733;48.744;9.176;2023-12-20T07:35:23;97054.44;;;4.38;95.11
80405;BME280;69733;48.744;9.176;2023-12-20T07:37:48;97069.88;;;4.41;94.94
80405;BME280;69733;48.744;9.176;2023-12-20T07:40:14;97059.25;;;4.35;95.49
80405;BME280;69733;48.744;9.176;2023-12-20T07:42:42;97059.25;;;4.35;95.62
80405;BME280;69733;48.744;9.176;2023-12-20T07:45:07;97068.31;;;4.32;95.26
80405;BME280;69733;48.744;9.176;2023-12-20T07:47:33;97066.06;;;4.29;95.79
80405;BME280;69733;48.744;9.176;2023-12-20T07:49:58;97071.97;;;4.31;95.87
80405;BME280;69733;48.744;9.176;2023-12-20T07:52:23;97077.06;;;4.33;95.53
80405;BME280;69733;48.744;9.176;2023-12-20T07:54:49;97063.06;;;4.32;95.62
80405;BME280;69733;48.744;9.176;2023-12-20T07:57:14;97062.44;;;4.30;95.71
80405;BME280;69733;48.744;9.176;2023-12-20T07:59:39;97058.38;;;4.28;95.48
80405;BME280;69733;48.744;9.176;2023-12-20T08:02:05;97060.78;;;4.29;95.86
80405;BME280;69733;48.744;9.176;2023-12-20T08:04:31;97061.53;;;4.23;95.82
80405;BME280;69733;48.744;9.176;2023-12-20T08:06:57;97068.44;;;4.24;95.76
80405;BME280;69733;48.744;9.176;2023-12-20T08:09:23;97069.44;;;4.23;96.21
80405;BME280;69733;48.744;9.176;2023-12-20T08:11:48;97075.53;;;4.24;95.75
80405;BME280;69733;48.744;9.176;2023-12-20T08:14:14;97072.53;;;4.27;95.66
80405;BME280;69733;48.744;9.176;2023-12-20T08:16:40;97086.97;;;4.31;95.61
80405;BME280;69733;48.744;9.176;2023-12-20T08:19:05;97086.44;;;4.35;95.48
80405;BME280;69733;48.744;9.176;2023-12-20T08:21:31;97082.97;;;4.35;95.49
80405;BME280;69733;48.744;9.176;2023-12-20T08:23:56;97084.41;;;4.37;95.57
80405;BME280;69733;48.744;9.176;2023-12-20T08:26:22;97084.41;;;4.37;95.46
80405;BME280;69733;48.744;9.176;2023-12-20T08:28:49;97095.56;;;4.39;94.95
80405;BME280;69733;48.744;9.176;2023-12-20T08:31:15;97084.69;;;4.42;95.02
80405;BME280;69733;48.744;9.176;2023-12-20T08:33:43;97084.69;;;4.42;94.96
80405;BME280;69733;48.744;9.176;2023-12-20T08:36:08;97086.22;;;4.37;95.31
80405;BME280;69733;48.744;9.176;2023-12-20T08:38:34;97094.31;;;4.35;95.70
80405;BME280;69733;48.744;9.176;2023-12-20T08:40:59;97107.13;;;4.38;95.71
80405;BME280;69733;48.744;9.176;2023-12-20T08:43:24;97108.41;;;4.42;95.37
80405;BME280;69733;48.744;9.176;2023-12-20T08:45:50;97110.38;;;4.40;95.11
80405;BME280;69733;48.744;9.176;2023-12-20T08:48:15;97121.91;;;4.39;95.51
80405;BME280;69733;48.744;9.176;2023-12-20T08:50:40;97127.00;;;4.41;95.17
80405;BME280;69733;48.744;9.176;2023-12-20T08:53:06;97123.38;;;4.42;94.96
80405;BME280;69733;48.744;9.176;2023-12-20T08:55:32;97128.00;;;4.40;95.47
80405;BME280;69733;48.744;9.176;2023-12-20T08:57:57;97126.28;;;4.32;95.29
80405;BME280;69733;48.744;9.176;2023-12-20T09:00:22;97125.72;;;4.22;95.96
80405;BME280;69733;48.744;9.176;2023-12-20T09:02:51;97123.53;;;4.11;96.24
80405;BME280;69733;48.744;9.176;2023-12-20T09:05:16;97115.38;;;4.06;96.68
80405;BME280;69733;48.744;9.176;2023-12-20T09:07:41;97122.91;;;4.09;96.42
80405;BME280;69733;48.744;9.176;2023-12-20T09:10:07;97114.66;;;4.12;96.16
80405;BME280;69733;48.744;9.176;2023-12-20T09:12:32;97111.47;;;4.17;95.47
80405;BME280;69733;48.744;9.176;2023-12-20T09:14:57;97114.56;;;4.20;95.76
80405;BME280;69733;48.744;9.176;2023-12-20T09:17:23;97121.47;;;4.21;95.08
80405;BME280;69733;48.744;9.176;2023-12-20T09:19:48;97111.56;;;4.23;95.28
80405;BME280;69733;48.744;9.176;2023-12-20T09:22:13;97107.66;;;4.19;95.08
80405;BME280;69733;48.744;9.176;2023-12-20T09:24:39;97121.47;;;4.21;94.93
80405;BME280;69733;48.744;9.176;2023-12-20T09:27:07;97116.53;;;4.18;95.13
80405;BME280;69733;48.744;9.176;2023-12-20T09:29:33;97115.56;;;4.19;95.14
80405;BME280;69733;48.744;9.176;2023-12-20T09:31:58;97117.19;;;4.20;94.96
80405;BME280;69733;48.744;9.176;2023-12-20T09:34:24;97121.81;;;4.18;94.88
80405;BME280;69733;48.744;9.176;2023-12-20T09:36:51;97126.28;;;4.18;95.16
80405;BME280;69733;48.744;9.176;2023-12-20T09:39:17;97114.94;;;4.17;95.20
80405;BME280;69733;48.744;9.176;2023-12-20T09:42:05;97125.09;;;4.20;94.65
80405;BME280;69733;48.744;9.176;2023-12-20T09:44:31;97128.25;;;4.16;95.10
80405;BME280;69733;48.744;9.176;2023-12-20T09:46:59;97130.91;;;4.16;94.87
80405;BME280;69733;48.744;9.176;2023-12-20T09:49:27;97129.72;;;4.18;94.48
80405;BME280;69733;48.744;9.176;2023-12-20T09:51:53;97129.53;;;4.20;94.80
80405;BME280;69733;48.744;9.176;2023-12-20T09:54:20;97137.28;;;4.21;94.64
80405;BME280;69733;48.744;9.176;2023-12-20T09:56:46;97137.28;;;4.21;94.55
80405;BME280;69733;48.744;9.176;2023-12-20T09:59:12;97136.16;;;4.16;94.52
80405;BME280;69733;48.744;9.176;2023-12-20T10:01:39;97131.72;;;4.16;94.52
80405;BME280;69733;48.744;9.176;2023-12-20T10:04:06;97137.97;;;4.15;94.76
80405;BME280;69733;48.744;9.176;2023-12-20T10:06:36;97130.91;;;4.16;94.39
80405;BME280;69733;48.744;9.176;2023-12-20T10:09:02;97131.88;;;4.15;94.44
80405;BME280;69733;48.744;9.176;2023-12-20T10:11:27;97140.97;;;4.12;94.43
80405;BME280;69733;48.744;9.176;2023-12-20T10:13:59;97139.78;;;4.15;94.76
80405;BME280;69733;48.744;9.176;2023-12-20T10:16:26;97137.44;;;4.20;93.94
80405;BME280;69733;48.744;9.176;2023-12-20T10:18:53;97129.81;;;4.39;93.46
80405;BME280;69733;48.744;9.176;2023-12-20T10:21:18;97124.53;;;4.69;92.43
80405;BME280;69733;48.744;9.176;2023-12-20T10:23:44;97127.34;;;4.82;92.41
80405;BME280;69733;48.744;9.176;2023-12-20T10:26:09;97114.00;;;4.83;92.22
80405;BME280;69733;48.744;9.176;2023-12-20T10:28:35;97105.53;;;4.88;92.09
80405;BME280;69733;48.744;9.176;2023-12-20T10:31:00;97107.78;;;4.91;92.53
80405;BME280;69733;48.744;9.176;2023-12-20T10:33:27;97106.81;;;4.92;92.43
80405;BME280;69733;48.744;9.176;2023-12-20T10:35:54;97093.16;;;4.88;92.74
80405;BME280;69733;48.744;9.176;2023-12-20T10:38:19;97099.22;;;4.89;93.11
80405;BME280;69733;48.744;9.176;2023-12-20T10:40:46;97094.59;;;4.91;92.89
80405;BME280;69733;48.744;9.176;2023-12-20T10:43:12;97102.91;;;4.88;93.45
80405;BME280;69733;48.744;9.176;2023-12-20T10:45:37;97101.78;;;4.97;92.74
80405;BME280;69733;48.744;9.176;2023-12-20T10:48:04;97103.78;;;4.95;93.12
80405;BME280;69733;48.744;9.176;2023-12-20T10:50:30;97102.22;;;5.00;93.18
80405;BME280;69733;48.744;9.176;2023-12-20T10:52:57;97109.31;;;5.00;92.99
80405;BME280;69733;48.744;9.176;2023-12-20T10:55:24;97096.19;;;5.07;93.16
80405;BME280;69733;48.744;9.176;2023-12-20T10:57:51;97105.38;;;5.11;92.67
80405;BME280;69733;48.744;9.176;2023-12-20T11:00:18;97092.00;;;5.12;92.96
80405;BME280;69733;48.744;9.176;2023-12-20T11:02:44;97094.66;;;5.12;93.36
80405;BME280;69733;48.744;9.176;2023-12-20T11:08:13;97087.44;;;5.21;92.85
80405;BME280;69733;48.744;9.176;2023-12-20T11:10:54;97096.34;;;5.20;93.47
80405;BME280;69733;48.744;9.176;2023-12-20T11:13:53;97079.19;;;5.09;93.86
80405;BME280;69733;48.744;9.176;2023-12-20T11:16:19;97088.16;;;5.15;93.47
80405;BME280;69733;48.744;9.176;2023-12-20T11:18:45;97084.19;;;5.04;93.77
80405;BME280;69733;48.744;9.176;2023-12-20T11:21:11;97088.88;;;5.02;94.07
80405;BME280;69733;48.744;9.176;2023-12-20T11:23:36;97087.50;;;5.06;93.96
80405;BME280;69733;48.744;9.176;2023-12-20T11:26:02;97079.38;;;5.08;93.76
80405;BME280;69733;48.744;9.176;2023-12-20T11:28:28;97069.81;;;5.07;94.07
80405;BME280;69733;48.744;9.176;2023-12-20T11:30:56;97077.50;;;5.01;94.33
80405;BME280;69733;48.744;9.176;2023-12-20T11:33:24;97076.66;;;5.01;94.14
80405;BME280;69733;48.744;9.176;2023-12-20T11:35:50;97076.50;;;5.03;94.27
80405;BME280;69733;48.744;9.176;2023-12-20T11:38:15;97070.13;;;4.97;94.25
80405;BME280;69733;48.744;9.176;2023-12-20T11:40:42;97074.41;;;4.98;94.58
80405;BME280;69733;48.744;9.176;2023-12-20T11:43:09;97075.41;;;4.97;94.47
80405;BME280;69733;48.744;9.176;2023-12-20T11:45:34;97066.22;;;4.93;94.70
80405;BME280;69733;48.744;9.176;2023-12-20T11:48:03;97075.22;;;4.98;94.78
80405;BME280;69733;48.744;9.176;2023-12-20T11:50:29;97078.25;;;4.95;94.98
80405;BME280;69733;48.744;9.176;2023-12-20T11:52:56;97071.78;;;4.98;94.52
80405;BME280;69733;48.744;9.176;2023-12-20T11:55:22;97071.84;;;5.05;93.87
80405;BME280;69733;48.744;9.176;2023-12-20T11:57:47;97070.25;;;5.10;93.99
80405;BME280;69733;48.744;9.176;2023-12-20T12:00:14;97076.28;;;5.04;94.37
80405;BME280;69733;48.744;9.176;2023-12-20T12:02:39;97075.84;;;5.00;94.30
80405;BME280;69733;48.744;9.176;2023-12-20T12:05:05;97066.88;;;4.95;94.38
80405;BME280;69733;48.744;9.176;2023-12-20T12:07:32;97063.41;;;4.94;94.51
80405;BME280;69733;48.744;9.176;2023-12-20T12:09:57;97064.41;;;4.93;94.68
80405;BME280;69733;48.744;9.176;2023-12-20T12:12:23;97059.34;;;4.92;94.87
80405;BME280;69733;48.744;9.176;2023-12-20T12:14:50;97059.53;;;4.90;94.58
80405;BME280;69733;48.744;9.176;2023-12-20T12:17:16;97057.69;;;4.91;94.81
80405;BME280;69733;48.744;9.176;2023-12-20T12:19:42;97053.06;;;4.93;94.46
80405;BME280;69733;48.744;9.176;2023-12-20T12:22:16;97053.06;;;4.93;94.37
80405;BME280;69733;48.744;9.176;2023-12-20T12:24:46;97042.78;;;4.98;94.51
80405;BME280;69733;48.744;9.176;2023-12-20T12:27:15;97039.81;;;5.08;93.75
80405;BME280;69733;48.744;9.176;2023-12-20T12:29:42;97039.53;;;5.17;93.66
80405;BME280;69733;48.744;9.176;2023-12-20T12:32:25;97032.66;;;5.23;93.58
80405;BME280;69733;48.744;9.176;2023-12-20T12:34:50;97030.66;;;5.25;93.42
80405;BME280;69733;48.744;9.176;2023-12-20T12:37:15;97027.84;;;5.26;93.23
80405;BME280;69733;48.744;9.176;2023-12-20T12:39:41;97033.50;;;5.23;93.54
80405;BME280;69733;48.744;9.176;2023-12-20T12:42:06;97032.50;;;5.24;93.74
80405;BME280;69733;48.744;9.176;2023-12-20T12:44:31;97031.84;;;5.22;94.01
80405;BME280;69733;48.744;9.176;2023-12-20T12:46:57;97032.06;;;5.21;93.58
80405;BME280;69733;48.744;9.176;2023-12-20T12:49:22;97028.81;;;5.25;93.58
80405;BME280;69733;48.744;9.176;2023-12-20T12:51:48;97022.81;;;5.31;93.33
80405;BME280;69733;48.744;9.176;2023-12-20T12:54:13;97015.78;;;5.38;93.13
80405;BME280;69733;48.744;9.176;2023-12-20T12:56:41;97027.13;;;5.39;93.19
80405;BME280;69733;48.744;9.176;2023-12-20T12:59:06;97032.41;;;5.39;93.61
80405;BME280;69733;48.744;9.176;2023-12-20T13:01:32;97038.06;;;5.36;93.25
80405;BME280;69733;48.744;9.176;2023-12-20T13:03:57;97040.06;;;5.34;93.59
80405;BME280;69733;48.744;9.176;2023-12-20T13:06:23;97033.97;;;5.33;93.76